createdAt,value
2022-10-03T05:52:15.621Z,21.4
2022-10-03T05:57:52.270Z,21.4
2022-10-03T06:03:29.254Z,21.4
2022-10-03T06:09:07.869Z,21.4
2022-10-03T06:14:44.759Z,21.4
2022-10-03T06:20:26.477Z,21.4
2022-10-03T06:26:09.670Z,21.4
2022-10-03T06:31:48.823Z,21.4
2022-10-03T06:37:25.760Z,21.4
2022-10-03T06:42:53.584Z,21.4
2022-10-03T06:48:34.033Z,21.4
2022-10-03T06:54:16.900Z,21.4
2022-10-03T06:59:54.892Z,21.4
2022-10-03T07:05:35.370Z,21.4
2022-10-03T07:11:13.651Z,21.4
2022-10-03T07:17:34.309Z,21.4
2022-10-03T07:23:12.989Z,21.5
2022-10-03T07:28:40.576Z,21.4
2022-10-03T07:34:19.430Z,21.4
2022-10-03T07:39:56.360Z,21.5
2022-10-03T07:45:33.518Z,21.4
2022-10-03T07:51:15.319Z,21.4
2022-10-03T07:56:57.841Z,21.4
2022-10-03T08:02:04.203Z,21.4
2022-10-03T08:07:43.429Z,21.4
2022-10-03T08:13:23.752Z,21.4
2022-10-03T08:18:45.719Z,21.4
2022-10-03T08:24:28.168Z,21.4
2022-10-03T08:30:05.330Z,21.4
2022-10-03T08:35:42.732Z,21.4
2022-10-03T08:41:21.094Z,21.4
2022-10-03T08:47:01.218Z,21.4
2022-10-03T08:52:38.389Z,21.4
2022-10-03T08:58:01.606Z,21.4
2022-10-03T09:04:13.593Z,21.4
2022-10-03T09:10:21.536Z,21.4
2022-10-03T09:15:59.821Z,21.4
2022-10-03T09:21:37.699Z,21.4
2022-10-03T09:27:14.971Z,21.4
2022-10-03T09:32:53.840Z,21.3
2022-10-03T09:38:31.109Z,21.3
2022-10-03T09:43:56.830Z,21.3
2022-10-03T09:49:35.874Z,21.2
2022-10-03T09:55:12.753Z,21.2
2022-10-03T12:08:15.213Z,20.9
2022-10-03T12:13:37.890Z,20.8
2022-10-03T12:18:59.996Z,20.8
2022-10-03T12:23:55.267Z,20.8
2022-10-03T12:29:02.596Z,20.8
2022-10-03T12:34:24.629Z,20.8
2022-10-03T12:40:02.597Z,20.8
2022-10-03T12:45:39.597Z,20.8
2022-10-03T12:51:43.836Z,20.7
2022-10-03T12:57:21.828Z,20.8
2022-10-03T13:03:01.200Z,20.7
2022-10-03T13:09:00.510Z,20.7
2022-10-03T13:14:42.196Z,20.7
2022-10-03T13:20:19.416Z,20.7
2022-10-03T13:26:32.385Z,20.8
2022-10-03T13:32:11.919Z,20.8
2022-10-03T13:37:33.435Z,20.8
2022-10-03T13:43:11.184Z,20.8
2022-10-03T13:48:50.551Z,20.9
2022-10-03T13:54:28.222Z,20.9
2022-10-03T14:00:07.823Z,20.9
2022-10-03T14:05:47.182Z,20.9
2022-10-03T14:11:24.471Z,20.9
2022-10-03T14:17:22.042Z,21
2022-10-03T14:23:00.571Z,21
2022-10-03T14:28:41.712Z,21.1
2022-10-03T14:40:04.926Z,21.1
2022-10-03T14:57:09.950Z,21.2
2022-10-03T15:19:05.014Z,21.2
2022-10-03T15:24:28.478Z,21.3
2022-10-03T15:29:51.028Z,21.3
2022-10-03T15:35:01.283Z,21.3
2022-10-03T15:40:38.132Z,21.3
2022-10-03T15:46:01.242Z,21.3
2022-10-03T15:51:23.163Z,21.3
2022-10-03T15:57:24.507Z,21.3
2022-10-03T16:03:08.751Z,21.4
2022-10-03T16:08:49.596Z,21.4
2022-10-03T16:14:12.836Z,21.4
2022-10-03T17:46:29.135Z,21.5
2022-10-03T17:51:51.336Z,21.5
2022-10-03T17:57:18.072Z,21.5
2022-10-03T18:02:15.461Z,21.4
2022-10-03T18:07:37.969Z,21.5
2022-10-03T18:13:01.704Z,21.5
2022-10-03T18:18:24.786Z,21.5
2022-10-03T18:24:11.904Z,21.4
2022-10-03T18:30:01.180Z,21.5
2022-10-03T18:35:24.536Z,21.4
2022-10-03T18:40:30.851Z,21.4
2022-10-03T18:45:52.582Z,21.4
2022-10-03T18:52:06.219Z,21.4
2022-10-03T18:57:44.214Z,21.4
2022-10-03T19:03:23.348Z,21.4
2022-10-03T19:09:06.515Z,21.4
2022-10-03T19:14:44.008Z,21.4
2022-10-03T19:20:21.045Z,21.3
2022-10-03T19:26:22.673Z,21.4
2022-10-03T19:31:44.750Z,21.3
2022-10-03T19:37:21.005Z,21.4
2022-10-03T19:43:02.830Z,21.3
2022-10-03T19:48:24.867Z,21.3
2022-10-03T19:53:54.545Z,21.3
2022-10-03T19:59:17.607Z,21.3
2022-10-03T20:04:55.156Z,21.4
2022-10-03T20:10:16.940Z,21.3
2022-10-03T20:15:23.841Z,21.3
2022-10-03T20:20:30.761Z,21.3
2022-10-03T20:25:21.714Z,21.3
2022-10-03T20:30:29.105Z,21.3
2022-10-03T20:35:36.169Z,21.3
2022-10-03T20:40:45.805Z,21.3
2022-10-03T20:45:57.441Z,21.2
2022-10-03T20:51:03.858Z,21.3
2022-10-03T20:56:10.557Z,21.2
2022-10-03T21:01:22.358Z,21.2
2022-10-03T21:06:31.454Z,21.2
2022-10-03T21:12:10.995Z,21.2
2022-10-03T21:17:18.026Z,21.3
2022-10-03T21:22:26.514Z,21.2
2022-10-03T21:27:33.347Z,21.3
2022-10-03T21:32:41.333Z,21.2
2022-10-03T21:38:19.436Z,21.2
2022-10-03T21:43:57.096Z,21.2
2022-10-03T21:49:19.843Z,21.2
